Skip Navigation Links Skip Navigation Links

Current Weather

Jakutsk, Russia

For information only: do not use for flight planning or navigation.
Latest weather
Observation time Monday, December 16, 2019 5:30 PM JST
Local time Monday, December 16, 2019 6:01 PM JST
Flight conditions Visual Meteorological Conditions
Winds
Wind direction West (280°)
Wind speed 2 mph
Visibility 6.2 mi.
Sky condition
Ceiling unlimited
Sky clear
Temperature -22°F
Dewpoint -29°F
Altimeter 29.97 in.Hg
Precipitation
QF 5:32 AM
Derived measurements
Relative humidity 68%
Wind chill -22°F
Density altitude -5619 ft.
Remarks
Ceiling and visibility OK.
No significant changes expected in the next two hours.
METAR UEEE 160830Z 28001MPS CAVOK M30/M34 Q1015 R23L/490146 NOSIG RMK QFE752

Settings

Location code

InnerDrive.Weather 4.0.6770.0 Release CLR 4.0.30319.42000
Copyright ©2018 Inner Drive Technology. All rights reserved. Portions Copyright ©1986-2018 David Braverman.

Find weather

Site navigation


Skip Navigation Links

Place info

Page info

PayPal - The safer, easier way to pay online!

Return home.

Copyright ©2019 Inner Drive Technology. Purveyors of fine, hand-crafted computer software. Page printed 2019-12-16T09:01:22 UTC.